Time;durP1;ratioP1;P1;durP2;ratioP2;P2;SDS_P1;SDS_P2;PMS_P1;PMS_P2;Temp;Humidity;BMP_temperature;BMP_pressure;BME280_temperature;BME280_humidity;BME280_pressure;Samples;Min_cycle;Max_cycle;Signal;HPM_P1;HPM_P2
2021/04/07 00:01:40;;;;;;;16.02;2.90;;;;;;;1.02;81.27;100556.81;10141755;28;20090;-68
2021/04/07 00:06:39;;;;;;;13.93;2.50;;;;;;;0.90;82.04;100553.47;10143745;28;20047;-68
2021/04/07 00:11:35;;;;;;;14.52;3.15;;;;;;;0.93;81.72;100563.75;10136808;28;20042;-68
2021/04/07 00:16:31;;;;;;;11.00;2.47;;;;;;;0.92;82.22;100551.34;10143767;28;20493;-68
2021/04/07 00:21:27;;;;;;;10.63;2.70;;;;;;;0.95;82.16;100553.53;10138775;28;20046;-68
2021/04/07 00:26:23;;;;;;;20.33;3.03;;;;;;;0.88;82.28;100550.22;10142665;28;20073;-68
2021/04/07 00:31:19;;;;;;;12.95;1.98;;;;;;;0.93;81.44;100552.97;10146775;28;20412;-66
2021/04/07 00:36:15;;;;;;;15.65;2.95;;;;;;;0.93;80.92;100558.38;10129622;28;20050;-69
2021/04/07 00:41:12;;;;;;;12.43;2.08;;;;;;;0.86;81.10;100562.31;10146207;28;20054;-68
2021/04/07 00:46:08;;;;;;;18.65;2.85;;;;;;;0.86;80.45;100568.53;10142504;28;20137;-68
2021/04/07 00:51:04;;;;;;;11.68;2.58;;;;;;;0.88;80.22;100565.56;10144661;28;20113;-68
2021/04/07 00:56:00;;;;;;;16.48;1.98;;;;;;;0.81;80.35;100563.09;10145784;28;20073;-68
2021/04/07 01:00:56;;;;;;;16.83;2.03;;;;;;;0.88;79.93;100563.69;10141933;28;20054;-67
2021/04/07 01:05:54;;;;;;;13.48;1.88;;;;;;;0.83;79.96;100569.03;10144156;28;20145;-67
2021/04/07 01:10:52;;;;;;;14.70;2.35;;;;;;;0.73;80.63;100568.97;10136407;28;20109;-68
2021/04/07 01:15:48;;;;;;;16.23;2.05;;;;;;;0.71;80.28;100563.00;10139367;28;20062;-68
2021/04/07 01:20:44;;;;;;;11.00;1.80;;;;;;;0.65;80.64;100566.72;10132438;28;20054;-69
2021/04/07 01:25:40;;;;;;;15.55;1.77;;;;;;;0.60;81.15;100571.00;10137966;28;20050;-67
2021/04/07 01:30:45;;;;;;;14.75;1.95;;;;;;;0.62;81.34;100579.59;10137008;28;20096;-67
2021/04/07 01:35:45;;;;;;;15.65;2.20;;;;;;;0.51;82.10;100580.59;10139955;28;20081;-68
2021/04/07 01:40:44;;;;;;;13.88;2.60;;;;;;;0.43;82.55;100572.16;10140137;28;20074;-68
2021/04/07 01:45:41;;;;;;;17.40;2.38;;;;;;;0.51;82.39;100577.91;10143005;28;20409;-68
2021/04/07 01:50:38;;;;;;;18.17;2.17;;;;;;;0.44;82.25;100577.28;10145389;28;20745;-68
2021/04/07 01:55:34;;;;;;;14.93;1.85;;;;;;;0.51;82.46;100575.22;10148800;28;20223;-67
2021/04/07 02:00:31;;;;;;;10.20;2.05;;;;;;;0.40;82.27;100576.19;10149928;28;20057;-67
2021/04/07 02:05:28;;;;;;;15.73;1.98;;;;;;;0.51;81.76;100579.78;10149197;28;20145;-67
2021/04/07 02:10:24;;;;;;;18.83;2.38;;;;;;;0.52;81.27;100579.53;10143038;28;20058;-68
2021/04/07 02:15:22;;;;;;;17.77;2.13;;;;;;;0.42;81.40;100587.50;10150239;28;20054;-69
2021/04/07 02:20:19;;;;;;;13.65;2.13;;;;;;;0.36;81.64;100575.06;10144485;28;20085;-68
2021/04/07 02:25:16;;;;;;;15.15;2.40;;;;;;;0.37;81.48;100582.06;10147558;28;20077;-68
2021/04/07 02:30:16;;;;;;;23.35;2.80;;;;;;;0.41;81.92;100583.19;10151589;28;20050;-67
2021/04/07 02:35:12;;;;;;;8.75;1.65;;;;;;;0.40;81.64;100598.50;10147733;28;20092;-67
2021/04/07 02:40:08;;;;;;;18.05;2.17;;;;;;;0.41;82.17;100588.56;10144519;28;20067;-68
2021/04/07 02:45:06;;;;;;;16.35;2.78;;;;;;;0.53;81.03;100601.84;10145049;28;20054;-67
2021/04/07 02:50:02;;;;;;;18.63;2.65;;;;;;;0.45;81.40;100607.72;10146430;28;20101;-67
2021/04/07 02:54:58;;;;;;;16.40;2.40;;;;;;;0.67;81.00;100596.88;10144484;28;20046;-68
2021/04/07 02:59:54;;;;;;;17.08;2.70;;;;;;;0.73;80.45;100595.88;10143786;28;20057;-69
2021/04/07 03:04:50;;;;;;;15.15;2.45;;;;;;;0.68;80.38;100598.53;10143927;28;20480;-67
2021/04/07 03:09:46;;;;;;;13.20;1.88;;;;;;;0.66;79.79;100595.28;10144414;28;20516;-68
2021/04/07 03:14:42;;;;;;;11.00;1.70;;;;;;;0.59;80.10;100606.22;10149143;28;20046;-68
2021/04/07 03:19:38;;;;;;;13.52;1.80;;;;;;;0.45;80.22;100605.81;10146789;28;20096;-70
2021/04/07 03:24:34;;;;;;;11.02;2.03;;;;;;;0.52;80.03;100595.66;10148049;28;20070;-68
2021/04/07 03:29:30;;;;;;;20.08;2.25;;;;;;;0.40;80.44;100609.25;10143832;28;20560;-68
2021/04/07 03:34:26;;;;;;;17.38;2.15;;;;;;;0.27;80.60;100598.09;10141196;28;20442;-68
2021/04/07 03:39:22;;;;;;;15.43;1.70;;;;;;;0.31;80.31;100601.91;10136462;28;20046;-68
2021/04/07 03:44:18;;;;;;;18.50;1.88;;;;;;;0.04;80.95;100599.97;10140819;28;20081;-68
2021/04/07 03:49:14;;;;;;;20.27;3.22;;;;;;;-0.02;80.66;100614.44;10144189;28;20054;-69
2021/04/07 03:54:10;;;;;;;14.70;2.67;;;;;;;-0.10;81.37;100615.66;10135068;28;20068;-67
2021/04/07 03:59:07;;;;;;;10.88;2.08;;;;;;;-0.10;81.39;100614.84;10145722;28;20065;-68
2021/04/07 04:04:03;;;;;;;14.75;2.00;;;;;;;-0.17;81.54;100624.97;10140161;28;20512;-69
2021/04/07 04:08:59;;;;;;;9.45;2.00;;;;;;;-0.10;81.12;100625.59;10146134;28;20515;-69
2021/04/07 04:13:55;;;;;;;13.40;2.30;;;;;;;-0.09;81.24;100629.94;10136817;28;20046;-68
2021/04/07 04:18:53;;;;;;;11.10;2.30;;;;;;;-0.18;81.41;100634.13;10133393;28;20085;-69
2021/04/07 04:23:49;;;;;;;15.73;2.35;;;;;;;-0.16;81.24;100631.97;10134117;28;20058;-68
2021/04/07 04:28:45;;;;;;;22.42;2.15;;;;;;;-0.15;81.27;100638.97;10132591;28;20153;-68
2021/04/07 04:33:43;;;;;;;12.80;2.83;;;;;;;-0.28;81.27;100635.59;10125596;28;20084;-67
2021/04/07 04:38:39;;;;;;;13.32;2.33;;;;;;;-0.10;81.24;100641.72;10133117;28;20066;-68
2021/04/07 04:43:36;;;;;;;10.65;2.55;;;;;;;-0.20;81.18;100646.97;10118114;28;20046;-68
2021/04/07 04:48:32;;;;;;;16.83;2.50;;;;;;;-0.11;81.40;100648.19;10130170;28;20050;-67
2021/04/07 04:53:28;;;;;;;16.98;2.67;;;;;;;-0.15;81.37;100660.47;10126877;28;20045;-67
2021/04/07 04:58:24;;;;;;;15.32;2.53;;;;;;;-0.12;82.04;100665.34;10135198;28;20084;-66
2021/04/07 05:03:26;;;;;;;17.63;2.33;;;;;;;-0.05;81.76;100661.44;10131037;28;20038;-66
2021/04/07 05:08:22;;;;;;;6.03;1.63;;;;;;;-0.15;81.75;100671.22;10137767;28;20129;-65
2021/04/07 05:13:18;;;;;;;17.95;2.60;;;;;;;-0.30;82.38;100669.97;10133333;28;20124;-67
2021/04/07 05:18:16;;;;;;;14.52;2.95;;;;;;;-0.18;82.40;100677.09;10129971;28;20069;-67
2021/04/07 05:23:12;;;;;;;19.88;3.15;;;;;;;-0.12;82.27;100678.78;10134467;28;20109;-67
2021/04/07 05:28:09;;;;;;;12.10;2.65;;;;;;;-0.11;82.71;100685.81;10129651;28;20072;-66
2021/04/07 05:33:07;;;;;;;13.80;2.97;;;;;;;-0.13;82.45;100685.25;10128546;28;20034;-66
2021/04/07 05:38:03;;;;;;;16.65;2.70;;;;;;;-0.07;82.62;100679.69;10127801;28;20047;-68
2021/04/07 05:43:01;;;;;;;14.52;3.70;;;;;;;-0.06;82.82;100691.25;10124769;28;20409;-68
2021/04/07 05:47:57;;;;;;;16.23;2.95;;;;;;;0.03;82.43;100697.81;10122573;28;20051;-68
2021/04/07 05:52:53;;;;;;;15.77;3.17;;;;;;;0.11;82.43;100689.31;10138566;28;20043;-68
2021/04/07 05:58:01;;;;;;;12.23;3.67;;;;;;;-0.01;83.02;100704.75;10134943;28;20416;-68
2021/04/07 06:03:00;;;;;;;15.48;3.42;;;;;;;0.15;82.45;100693.13;10132114;28;20504;-69
2021/04/07 06:08:00;;;;;;;13.63;2.80;;;;;;;0.34;82.44;100707.09;10135072;28;20050;-69
2021/04/07 06:12:57;;;;;;;6.40;2.58;;;;;;;0.19;82.11;100720.34;10145652;28;20046;-65
2021/04/07 06:17:56;;;;;;;11.75;2.83;;;;;;;0.32;81.71;100724.53;10130027;28;20118;-66
2021/04/07 06:22:53;;;;;;;13.75;2.38;;;;;;;0.36;81.80;100723.78;10126037;28;20054;-68
2021/04/07 06:27:55;;;;;;;6.97;2.00;;;;;;;0.43;81.71;100720.94;10121843;28;20082;-68
2021/04/07 06:32:51;;;;;;;7.93;2.20;;;;;;;0.34;81.05;100738.56;10125177;28;20114;-68
2021/04/07 06:37:47;;;;;;;10.90;2.08;;;;;;;0.20;81.02;100744.28;10130307;28;20057;-67
2021/04/07 06:42:43;;;;;;;12.20;2.65;;;;;;;0.40;81.12;100732.19;10135478;28;20821;-67
2021/04/07 06:47:42;;;;;;;12.75;2.35;;;;;;;0.47;81.15;100735.50;10135666;28;20532;-67
2021/04/07 06:52:43;;;;;;;12.88;2.35;;;;;;;0.42;81.01;100746.22;10135657;28;20058;-67
2021/04/07 06:57:39;;;;;;;10.07;2.22;;;;;;;0.50;80.71;100743.06;10136347;28;20050;-68
2021/04/07 07:02:35;;;;;;;10.52;2.00;;;;;;;0.55;80.48;100735.06;10134372;28;20050;-68
2021/04/07 07:07:31;;;;;;;9.82;2.33;;;;;;;0.51;80.44;100754.63;10135255;28;20042;-71
2021/04/07 07:12:31;;;;;;;12.02;2.28;;;;;;;0.43;80.81;100747.81;10126382;28;20054;-70
2021/04/07 07:17:31;;;;;;;8.23;1.65;;;;;;;0.22;81.50;100762.06;10128360;28;20050;-65
2021/04/07 07:22:29;;;;;;;13.40;1.90;;;;;;;0.34;80.97;100749.31;10136990;28;20113;-66
2021/04/07 07:27:56;;;;;;;9.88;1.70;;;;;;;0.28;81.80;100750.31;10146362;28;20052;-68
2021/04/07 07:32:52;;;;;;;9.25;2.00;;;;;;;0.59;81.14;100749.66;10132696;28;20051;-65
2021/04/07 07:37:59;;;;;;;12.65;2.00;;;;;;;0.51;81.72;100749.25;10131829;28;20457;-70
2021/04/07 07:42:57;;;;;;;9.18;2.20;;;;;;;0.63;81.23;100753.47;10133977;28;20142;-66
2021/04/07 07:48:11;;;;;;;10.70;2.15;;;;;;;0.77;81.17;100747.72;10125116;28;20146;-66
2021/04/07 07:53:25;;;;;;;9.40;1.77;;;;;;;0.76;81.93;100764.91;10125770;28;20327;-66
2021/04/07 07:58:26;;;;;;;9.27;2.03;;;;;;;0.90;81.74;100758.06;10130579;28;20082;-66
2021/04/07 08:03:22;;;;;;;6.88;1.70;;;;;;;0.83;81.81;100773.59;10140857;28;20055;-64
2021/04/07 08:08:19;;;;;;;8.80;2.03;;;;;;;0.97;81.51;100761.38;10132603;28;20054;-70
2021/04/07 08:13:15;;;;;;;6.13;2.40;;;;;;;0.99;81.57;100761.94;10139771;28;20074;-65
2021/04/07 08:18:13;;;;;;;8.48;2.00;;;;;;;1.00;81.48;100763.59;10139021;28;20042;-65
2021/04/07 08:23:10;;;;;;;7.20;2.08;;;;;;;1.04;81.07;100763.88;10137870;28;20731;-65
2021/04/07 08:28:07;;;;;;;7.80;1.92;;;;;;;1.20;81.30;100784.50;10140028;28;20104;-65
2021/04/07 08:33:03;;;;;;;10.35;1.80;;;;;;;1.18;81.56;100785.84;10141798;28;20178;-65
2021/04/07 08:38:04;;;;;;;11.05;2.63;;;;;;;1.20;81.67;100778.31;10141989;28;20078;-67
2021/04/07 08:43:01;;;;;;;7.05;2.13;;;;;;;1.33;81.48;100774.41;10150023;28;20109;-67
2021/04/07 08:48:03;;;;;;;5.22;1.70;;;;;;;1.38;81.10;100780.66;10149199;28;20092;-67
2021/04/07 08:53:11;;;;;;;8.25;2.17;;;;;;;1.25;81.68;100808.00;10133980;28;20429;-67
2021/04/07 08:58:07;;;;;;;6.32;1.98;;;;;;;1.33;82.23;100794.09;10133735;28;20141;-67
2021/04/07 09:03:14;;;;;;;6.68;2.20;;;;;;;1.38;81.83;100790.63;10143391;28;20050;-67
2021/04/07 09:08:18;;;;;;;6.70;1.55;;;;;;;1.45;81.69;100792.03;10135693;28;20049;-68
2021/04/07 09:13:19;;;;;;;;;;;;;;;1.57;81.28;100804.53;10140593;28;20053;-67
2021/04/07 09:18:31;;;;;;;4.47;1.63;;;;;;;1.65;81.95;100790.63;10134400;28;19926;-67
2021/04/07 09:23:33;;;;;;;7.35;2.20;;;;;;;1.71;81.44;100794.97;10129190;28;20527;-67
2021/04/07 09:28:35;;;;;;;8.15;2.38;;;;;;;1.76;81.19;100791.50;10139284;28;20155;-67
2021/04/07 09:33:31;;;;;;;8.20;2.20;;;;;;;1.78;80.99;100790.16;10126429;28;20060;-67
2021/04/07 09:38:30;;;;;;;7.97;2.72;;;;;;;1.95;81.01;100794.59;10142822;28;20109;-68
2021/04/07 09:43:26;;;;;;;9.35;3.00;;;;;;;2.21;80.17;100793.72;10137453;28;20046;-67
2021/04/07 09:48:33;;;;;;;5.07;2.03;;;;;;;1.97;80.78;100797.88;10137416;28;20061;-66
2021/04/07 09:53:29;;;;;;;6.13;2.35;;;;;;;1.84;82.09;100789.16;10138625;28;20054;-66
2021/04/07 09:58:25;;;;;;;10.57;2.15;;;;;;;1.92;81.72;100795.13;10138678;28;20089;-67
2021/04/07 10:03:21;;;;;;;4.22;1.40;;;;;;;1.85;81.63;100806.13;10120208;28;20097;-67
2021/04/07 10:08:23;;;;;;;4.90;2.00;;;;;;;2.05;81.56;100786.59;10120750;28;20051;-67
2021/04/07 10:13:20;;;;;;;4.72;2.05;;;;;;;2.28;80.40;100783.50;10124387;28;20042;-66
2021/04/07 10:18:19;;;;;;;5.45;1.80;;;;;;;2.44;80.03;100776.31;10123510;28;20058;-67
2021/04/07 10:23:20;;;;;;;10.55;1.92;;;;;;;3.06;78.38;100790.06;10120046;28;20098;-67
2021/04/07 10:28:19;;;;;;;6.53;2.00;;;;;;;3.26;76.70;100781.22;10127480;28;20062;-67
2021/04/07 10:33:25;;;;;;;4.70;1.70;;;;;;;3.66;75.35;100774.22;10134457;28;20559;-67
2021/04/07 10:38:21;;;;;;;4.90;1.50;;;;;;;4.52;71.74;100781.41;10130590;28;20050;-67
2021/04/07 10:43:19;;;;;;;5.00;2.10;;;;;;;4.51;71.39;100768.16;10138810;28;20057;-67
2021/04/07 10:48:20;;;;;;;3.13;1.40;;;;;;;4.29;71.82;100774.69;10133519;28;20050;-67
2021/04/07 10:53:32;;;;;;;5.88;1.75;;;;;;;4.35;72.46;100765.47;10133788;28;20034;-70
2021/04/07 10:58:28;;;;;;;4.13;1.77;;;;;;;4.22;72.30;100768.75;10134292;28;20054;-68
2021/04/07 11:03:35;;;;;;;6.13;2.00;;;;;;;4.21;73.11;100775.25;10137732;28;20142;-68
2021/04/07 11:08:37;;;;;;;5.45;1.67;;;;;;;4.32;73.29;100774.16;10142824;28;20052;-68
2021/04/07 11:13:34;;;;;;;4.65;1.85;;;;;;;4.31;74.25;100769.81;10144461;28;20046;-67
2021/04/07 11:18:30;;;;;;;5.97;1.70;;;;;;;4.46;73.87;100777.09;10145423;28;20100;-67
2021/04/07 11:23:26;;;;;;;7.75;2.17;;;;;;;4.73;73.51;100759.66;10142544;28;20057;-68
2021/04/07 11:28:23;;;;;;;7.80;1.90;;;;;;;5.34;71.39;100753.09;10144869;28;20049;-67
2021/04/07 11:33:21;;;;;;;9.43;2.03;;;;;;;5.12;71.95;100754.31;10133526;28;20130;-67
2021/04/07 11:38:45;;;;;;;5.93;1.95;;;;;;;4.94;74.95;100776.63;10149711;28;20047;-68
2021/04/07 11:48:58;;;;;;;4.90;2.35;;;;;;;4.28;78.97;100781.19;10145531;28;20092;-69
2021/04/07 11:53:54;;;;;;;7.13;2.35;;;;;;;4.24;80.64;100774.72;10138452;28;20053;-69
2021/04/07 11:58:50;;;;;;;6.55;1.52;;;;;;;4.09;80.68;100772.84;10144438;28;20061;-68
2021/04/07 12:03:47;;;;;;;6.22;2.13;;;;;;;4.20;81.02;100779.88;10141380;28;20601;-68
2021/04/07 12:08:43;;;;;;;6.22;2.35;;;;;;;4.09;81.30;100769.34;10140468;28;20042;-68
2021/04/07 12:13:40;;;;;;;6.55;2.40;;;;;;;4.22;82.38;100772.28;10140448;28;20127;-68
2021/04/07 12:18:36;;;;;;;6.40;3.08;;;;;;;4.49;82.54;100760.31;10134925;28;20564;-68
2021/04/07 12:23:33;;;;;;;6.05;2.60;;;;;;;4.30;82.06;100762.00;10138788;28;20790;-68
2021/04/07 12:28:29;;;;;;;4.63;2.20;;;;;;;4.58;82.66;100761.34;10136441;28;20042;-68
2021/04/07 12:33:29;;;;;;;5.63;2.38;;;;;;;4.54;82.04;100756.75;10129452;28;20050;-68
2021/04/07 12:38:28;;;;;;;5.68;2.25;;;;;;;4.63;82.37;100771.34;10141520;28;20078;-67
2021/04/07 12:43:24;;;;;;;8.60;2.17;;;;;;;4.93;80.29;100775.03;10137352;28;20069;-68
2021/04/07 12:48:20;;;;;;;11.80;2.25;;;;;;;5.46;78.25;100756.28;10131654;28;20058;-67
2021/04/07 12:53:16;;;;;;;11.05;1.67;;;;;;;5.54;77.06;100736.66;10129795;28;20444;-67
2021/04/07 12:58:13;;;;;;;16.70;2.35;;;;;;;5.89;76.12;100737.47;10133333;28;20054;-68
2021/04/07 13:03:09;;;;;;;14.20;2.55;;;;;;;5.93;74.07;100749.38;10129514;28;20138;-68
2021/04/07 13:08:05;;;;;;;5.70;1.27;;;;;;;5.11;77.13;100755.41;10136166;28;20745;-68
2021/04/07 13:13:01;;;;;;;13.00;1.80;;;;;;;4.62;78.08;100759.72;10132379;28;20050;-67
2021/04/07 13:17:57;;;;;;;18.15;2.78;;;;;;;4.66;80.22;100754.53;10129618;28;20133;-66
2021/04/07 13:22:53;;;;;;;12.55;1.75;;;;;;;4.64;81.07;100746.72;10133516;28;20046;-66
2021/04/07 13:27:49;;;;;;;14.18;1.70;;;;;;;4.64;81.05;100764.84;10137729;28;20050;-66
2021/04/07 13:32:53;;;;;;;14.02;2.22;;;;;;;4.57;80.08;100750.78;10141175;28;20129;-66
2021/04/07 13:37:55;;;;;;;14.13;2.47;;;;;;;5.97;78.37;100755.88;10129007;28;20050;-66
2021/04/07 13:42:57;;;;;;;14.30;2.13;;;;;;;6.31;74.31;100744.13;10121909;28;20039;-65
2021/04/07 13:47:55;;;;;;;9.88;1.90;;;;;;;7.06;70.33;100758.97;10137093;28;20061;-66
2021/04/07 13:52:53;;;;;;;19.58;2.83;;;;;;;7.06;70.85;100758.97;10131856;28;20070;-66
2021/04/07 13:57:51;;;;;;;12.30;1.58;;;;;;;6.50;67.64;100755.88;10130920;28;20056;-65
2021/04/07 14:02:47;;;;;;;13.68;2.30;;;;;;;7.74;65.77;100769.34;10134912;28;20050;-66
2021/04/07 14:08:00;;;;;;;14.40;2.20;;;;;;;7.72;63.39;100777.00;10132064;28;20490;-66
2021/04/07 14:13:06;;;;;;;6.00;1.53;;;;;;;6.90;61.97;100789.06;10134727;28;20145;-66
2021/04/07 14:18:04;;;;;;;6.88;1.55;;;;;;;6.43;63.64;100790.72;10136611;28;20536;-67
2021/04/07 14:23:00;;;;;;;11.70;3.20;;;;;;;6.48;64.61;100809.66;10142281;28;20104;-66
2021/04/07 14:27:59;;;;;;;10.82;2.75;;;;;;;6.06;66.71;100803.03;10139800;28;20100;-68
2021/04/07 14:32:55;;;;;;;10.05;1.98;;;;;;;5.95;69.20;100806.91;10142195;28;20054;-67
2021/04/07 14:37:51;;;;;;;12.88;3.08;;;;;;;6.63;67.66;100805.16;10147298;28;20133;-67
2021/04/07 14:42:47;;;;;;;9.50;1.90;;;;;;;6.63;65.81;100807.88;10147929;28;20047;-67
2021/04/07 14:47:46;;;;;;;8.25;1.42;;;;;;;6.04;67.74;100810.63;10139034;28;20535;-67
2021/04/07 14:52:43;;;;;;;10.77;1.33;;;;;;;6.72;65.46;100815.09;10135905;28;20038;-67
2021/04/07 14:57:41;;;;;;;8.15;1.08;;;;;;;7.37;64.89;100819.97;10136871;28;20089;-68
2021/04/07 15:02:39;;;;;;;8.60;2.30;;;;;;;6.63;65.60;100843.19;10130230;28;20222;-67
2021/04/07 15:07:36;;;;;;;9.18;1.05;;;;;;;6.21;65.02;100836.56;10131060;28;20053;-69
2021/04/07 15:12:32;;;;;;;5.00;1.83;;;;;;;5.95;66.25;100838.69;10120325;28;20061;-67
2021/04/07 15:17:28;;;;;;;9.95;0.82;;;;;;;6.13;64.98;100845.28;10129269;28;20097;-66
2021/04/07 15:22:24;;;;;;;4.90;0.90;;;;;;;5.87;65.79;100854.44;10139310;28;20065;-66
2021/04/07 15:27:26;;;;;;;4.78;1.52;;;;;;;6.47;62.37;100862.38;10139427;28;20836;-65
2021/04/07 15:32:22;;;;;;;2.50;0.57;;;;;;;6.37;60.90;100862.47;10140515;28;20057;-66
2021/04/07 15:37:18;;;;;;;6.38;1.15;;;;;;;5.47;65.41;100882.63;10133978;28;20050;-67
2021/04/07 15:42:14;;;;;;;6.35;0.90;;;;;;;5.46;71.40;100891.88;10136901;28;20046;-68
2021/04/07 15:47:11;;;;;;;2.90;0.50;;;;;;;5.92;67.60;100888.88;10146097;28;20045;-68
2021/04/07 15:52:26;;;;;;;3.83;0.70;;;;;;;5.87;66.15;100897.88;10145912;28;20046;-64
2021/04/07 15:57:27;;;;;;;3.42;0.43;;;;;;;5.56;67.39;100907.28;10134851;28;20073;-67
2021/04/07 16:02:27;;;;;;;6.45;1.00;;;;;;;6.20;65.24;100890.06;10135433;28;20500;-69
2021/04/07 16:07:23;;;;;;;6.68;0.77;;;;;;;6.37;64.25;100903.22;10142273;28;20046;-67
2021/04/07 16:12:20;;;;;;;5.85;0.93;;;;;;;5.96;65.35;100895.38;10142979;28;20109;-68
2021/04/07 16:17:16;;;;;;;6.07;1.23;;;;;;;6.16;64.57;100889.00;10138133;28;20093;-68
2021/04/07 16:22:12;;;;;;;5.22;0.73;;;;;;;5.99;63.82;100904.88;10128252;28;20051;-68
2021/04/07 16:27:08;;;;;;;8.23;0.70;;;;;;;5.68;64.01;100919.38;10134853;28;20046;-68
2021/04/07 16:32:04;;;;;;;3.38;0.80;;;;;;;4.71;69.64;100957.69;10143471;28;20050;-67
2021/04/07 16:37:01;;;;;;;7.20;1.70;;;;;;;4.95;68.90;100951.69;10129229;28;20691;-68
2021/04/07 16:41:57;;;;;;;4.25;0.85;;;;;;;5.16;67.88;100953.25;10126869;28;20094;-68
2021/04/07 16:46:53;;;;;;;3.35;0.50;;;;;;;4.84;67.92;100973.38;10128572;28;20038;-68
2021/04/07 16:51:49;;;;;;;4.32;0.70;;;;;;;4.63;68.53;100960.94;10132058;28;20065;-67
2021/04/07 16:56:45;;;;;;;6.15;0.55;;;;;;;4.24;69.11;100979.59;10116907;28;20157;-65
2021/04/07 17:01:41;;;;;;;7.82;1.08;;;;;;;4.39;68.32;100987.75;10125087;28;20042;-65
2021/04/07 17:06:38;;;;;;;10.20;1.38;;;;;;;4.51;67.84;100990.19;10132235;28;20042;-68
2021/04/07 17:11:34;;;;;;;11.15;1.27;;;;;;;4.52;67.05;101002.63;10129226;28;21091;-68
2021/04/07 17:16:30;;;;;;;9.88;1.48;;;;;;;4.73;66.84;100993.41;10130027;28;20077;-64
2021/04/07 17:21:27;;;;;;;9.32;1.55;;;;;;;4.54;68.53;101000.47;10138153;28;20054;-64
2021/04/07 17:26:23;;;;;;;9.10;1.58;;;;;;;4.34;69.45;101002.09;10130714;28;20073;-68
2021/04/07 17:31:19;;;;;;;19.20;2.85;;;;;;;4.13;70.89;100995.00;10128230;28;20066;-65
2021/04/07 17:36:15;;;;;;;14.90;2.28;;;;;;;3.99;71.28;101006.34;10124077;28;20050;-67
2021/04/07 17:41:14;;;;;;;14.20;2.08;;;;;;;3.92;72.34;101022.03;10117560;28;20058;-65
2021/04/07 17:46:10;;;;;;;13.40;1.85;;;;;;;3.92;71.09;101016.63;10124286;28;20744;-67
2021/04/07 17:51:07;;;;;;;18.30;1.67;;;;;;;3.92;70.27;101019.31;10125681;28;20073;-63
2021/04/07 17:56:04;;;;;;;12.98;2.28;;;;;;;3.98;68.38;101020.94;10109457;28;20054;-65
2021/04/07 18:01:02;;;;;;;13.23;3.17;;;;;;;3.91;67.12;101043.94;10123934;28;20610;-67
2021/04/07 18:06:02;;;;;;;18.63;2.65;;;;;;;3.82;66.05;101049.03;10101438;28;20060;-66
2021/04/07 18:10:58;;;;;;;18.15;2.97;;;;;;;3.81;64.99;101052.81;10126288;28;20053;-67
2021/04/07 18:15:54;;;;;;;18.27;2.42;;;;;;;3.89;64.73;101060.41;10117378;28;20073;-66
2021/04/07 18:20:51;;;;;;;20.05;2.22;;;;;;;3.81;64.13;101069.06;10121238;28;20585;-69
2021/04/07 18:25:48;;;;;;;16.95;2.70;;;;;;;3.74;63.75;101073.88;10125441;28;20046;-67
2021/04/07 18:30:45;;;;;;;21.60;2.78;;;;;;;3.76;65.05;101072.56;10138208;28;20058;-68
2021/04/07 18:35:43;;;;;;;16.88;2.80;;;;;;;3.71;65.09;101090.63;10131577;28;20047;-65
2021/04/07 18:40:39;;;;;;;16.45;3.17;;;;;;;3.72;65.71;101089.56;10143289;28;20448;-68
2021/04/07 18:45:36;;;;;;;28.33;3.78;;;;;;;3.68;66.53;101099.28;10147198;28;20144;-69
2021/04/07 18:50:35;;;;;;;19.10;2.67;;;;;;;3.51;67.62;101113.78;10131480;28;20047;-70
2021/04/07 18:55:37;;;;;;;19.02;2.95;;;;;;;3.50;67.97;101122.13;10137103;28;20047;-68
2021/04/07 19:00:35;;;;;;;17.95;2.78;;;;;;;3.45;68.33;101130.22;10146322;28;20062;-66
2021/04/07 19:05:31;;;;;;;17.05;2.70;;;;;;;3.45;68.83;101147.25;10141075;28;20052;-65
2021/04/07 19:10:27;;;;;;;18.95;2.65;;;;;;;3.36;69.65;101138.84;10139770;28;20404;-65
2021/04/07 19:15:24;;;;;;;14.80;2.30;;;;;;;3.47;69.49;101142.41;10133002;28;20440;-67
2021/04/07 19:20:20;;;;;;;25.38;3.20;;;;;;;3.49;69.69;101134.84;10134836;28;20226;-65
2021/04/07 19:25:17;;;;;;;16.60;2.53;;;;;;;3.27;69.67;101144.94;10136701;28;20042;-65
2021/04/07 19:30:14;;;;;;;18.40;2.53;;;;;;;3.40;68.07;101146.41;10143468;28;20138;-66
2021/04/07 19:35:10;;;;;;;16.08;2.60;;;;;;;3.26;67.33;101148.75;10135613;28;20047;-66
2021/04/07 19:40:26;;;;;;;9.90;2.03;;;;;;;3.11;65.68;101161.06;10114993;28;20046;-68
2021/04/07 19:45:22;;;;;;;11.50;2.00;;;;;;;3.13;64.55;101166.19;10128164;28;20527;-67
2021/04/07 19:55:33;;;;;;;13.63;2.05;;;;;;;3.13;64.85;101156.22;10126528;28;20844;-65
2021/04/07 20:00:30;;;;;;;11.30;2.05;;;;;;;3.05;65.74;101159.38;10137251;28;20669;-67
2021/04/07 20:05:26;;;;;;;11.40;1.75;;;;;;;3.08;66.00;101164.25;10132867;28;20046;-69
2021/04/07 20:10:22;;;;;;;11.80;2.75;;;;;;;3.13;65.99;101171.59;10140302;28;22265;-68
2021/04/07 20:15:18;;;;;;;16.08;3.50;;;;;;;2.99;67.58;101175.78;10125648;28;20050;-66
2021/04/07 20:20:14;;;;;;;14.05;2.33;;;;;;;2.87;67.54;101178.66;10124128;28;20469;-66
2021/04/07 20:25:11;;;;;;;12.30;2.13;;;;;;;2.86;68.55;101177.03;10128014;28;20096;-67
2021/04/07 20:30:09;;;;;;;12.40;2.17;;;;;;;2.91;69.17;101190.56;10127209;28;20060;-67
2021/04/07 20:35:09;;;;;;;12.52;1.70;;;;;;;2.98;69.35;101185.78;10119973;28;20046;-67
2021/04/07 20:40:06;;;;;;;11.40;2.10;;;;;;;2.92;70.32;101184.09;10141273;28;20104;-67
2021/04/07 20:45:03;;;;;;;12.80;1.67;;;;;;;3.00;70.94;101204.44;10128229;28;20106;-67
2021/04/07 20:49:59;;;;;;;16.63;2.40;;;;;;;3.06;70.91;101209.63;10124861;28;20740;-67
2021/04/07 20:54:55;;;;;;;17.42;2.70;;;;;;;2.96;72.12;101225.72;10125028;28;20094;-67
2021/04/07 20:59:51;;;;;;;15.45;2.38;;;;;;;2.91;72.97;101228.38;10121950;28;20571;-66
2021/04/07 21:04:47;;;;;;;11.60;2.20;;;;;;;2.77;73.43;101229.84;10130352;28;20053;-67
2021/04/07 21:09:43;;;;;;;12.25;1.33;;;;;;;2.51;73.79;101243.88;10138323;28;20043;-67
2021/04/07 21:14:40;;;;;;;7.60;0.93;;;;;;;2.30;74.58;101245.50;10137399;28;20430;-66
2021/04/07 21:19:36;;;;;;;6.90;0.50;;;;;;;2.18;76.11;101247.50;10143896;28;20100;-66
2021/04/07 21:24:32;;;;;;;6.85;1.20;;;;;;;2.00;77.07;101258.56;10139851;28;20047;-67
2021/04/07 21:29:30;;;;;;;7.55;1.83;;;;;;;1.99;77.33;101248.81;10142682;28;20046;-68
2021/04/07 21:34:25;;;;;;;7.47;2.38;;;;;;;1.91;78.04;101257.34;10130706;28;20413;-67
2021/04/07 21:39:21;;;;;;;8.50;1.60;;;;;;;1.81;79.13;101275.00;10136368;28;20544;-67
2021/04/07 21:44:18;;;;;;;10.52;1.23;;;;;;;1.93;79.05;101280.28;10143768;28;20066;-67
2021/04/07 21:49:14;;;;;;;12.45;1.60;;;;;;;2.00;79.00;101288.22;10135333;28;20050;-67
2021/04/07 21:54:10;;;;;;;7.60;2.17;;;;;;;2.00;78.96;101288.22;10135434;28;20035;-67
2021/04/07 21:59:06;;;;;;;13.25;1.20;;;;;;;2.13;78.96;101298.66;10140867;28;20043;-68
2021/04/07 22:04:03;;;;;;;18.58;1.98;;;;;;;2.11;78.53;101300.78;10149177;28;20050;-68
2021/04/07 22:08:58;;;;;;;5.65;0.90;;;;;;;2.14;78.29;101304.88;10149702;28;20065;-66
2021/04/07 22:13:54;;;;;;;9.85;1.27;;;;;;;2.25;77.12;101306.66;10151755;28;20043;-66
2021/04/07 22:18:50;;;;;;;10.77;1.23;;;;;;;2.08;77.65;101307.47;10150923;28;20052;-66
2021/04/07 22:23:57;;;;;;;14.00;1.45;;;;;;;2.04;77.45;101306.38;10151361;28;20498;-67
2021/04/07 22:28:54;;;;;;;10.55;1.25;;;;;;;2.07;76.51;101315.84;10138817;28;20043;-67
2021/04/07 22:33:56;;;;;;;13.25;1.55;;;;;;;2.00;76.42;101320.59;10147333;28;20070;-68
2021/04/07 22:38:53;;;;;;;8.30;1.67;;;;;;;1.96;75.89;101336.44;10142519;28;20054;-66
2021/04/07 22:43:49;;;;;;;9.95;1.58;;;;;;;1.99;75.76;101340.50;10144651;28;20086;-66
2021/04/07 22:48:46;;;;;;;16.33;1.98;;;;;;;2.00;75.96;101336.78;10146018;28;20085;-67
2021/04/07 22:53:43;;;;;;;8.55;1.00;;;;;;;2.02;76.92;101330.06;10146886;28;20046;-68
2021/04/07 22:58:41;;;;;;;18.20;2.78;;;;;;;2.07;77.47;101362.50;10144351;28;20042;-67
2021/04/07 23:03:37;;;;;;;7.80;1.30;;;;;;;2.13;77.86;101351.78;10144047;28;20174;-67